createdAt,value
2023-03-12T06:10:51.532Z,3.38
2023-03-12T06:13:20.833Z,4.38
2023-03-12T06:27:12.814Z,3.17
2023-03-12T06:35:08.019Z,3.60
2023-03-12T06:37:35.659Z,4.70
2023-03-12T06:40:05.164Z,4.60
2023-03-12T06:42:32.286Z,3.42
2023-03-12T06:44:59.479Z,3.78
2023-03-12T06:47:26.048Z,2.90
2023-03-12T06:49:53.317Z,3.15
2023-03-12T06:52:19.884Z,2.80
2023-03-12T06:54:47.127Z,3.15
2023-03-12T06:57:13.738Z,2.45
2023-03-12T06:59:40.936Z,3.05
2023-03-12T07:02:11.118Z,3.35
2023-03-12T07:04:38.450Z,2.67
2023-03-12T07:07:05.202Z,2.67
2023-03-12T07:09:32.405Z,2.92
2023-03-12T07:11:58.993Z,2.95
2023-03-12T07:14:26.936Z,2.53
2023-03-12T07:16:53.508Z,2.88
2023-03-12T07:19:20.720Z,3.05
2023-03-12T07:21:47.283Z,2.60
2023-03-12T07:24:14.458Z,2.63
2023-03-12T07:26:41.042Z,2.88
2023-03-12T07:29:08.286Z,2.20
2023-03-12T07:31:34.930Z,2.38
2023-03-12T07:34:03.513Z,2.50
2023-03-12T07:36:30.274Z,2.78
2023-03-12T07:38:57.550Z,2.33
2023-03-12T07:41:24.206Z,2.25
2023-03-12T07:43:52.038Z,2.33
2023-03-12T07:46:18.801Z,2.67
2023-03-12T07:48:46.046Z,2.40
2023-03-12T07:51:12.628Z,2.42
2023-03-12T07:53:39.806Z,1.88
2023-03-12T07:56:07.010Z,2.30
2023-03-12T07:58:36.719Z,2.35
2023-03-12T08:01:03.571Z,2.63
2023-03-12T08:03:31.093Z,3.20
2023-03-12T08:05:59.837Z,2.95
2023-03-12T08:08:28.090Z,2.35
2023-03-12T08:10:55.537Z,3.28
2023-03-12T08:13:24.327Z,4.03
2023-03-12T08:15:52.910Z,4.68
2023-03-12T08:18:20.589Z,5.63
2023-03-12T08:20:50.169Z,2.92
2023-03-12T08:23:17.777Z,4.03
2023-03-12T08:25:48.972Z,4.53
2023-03-12T08:28:16.904Z,4.35
2023-03-12T08:30:49.058Z,8.77
2023-03-12T08:33:16.559Z,5.72
2023-03-12T08:35:43.141Z,4.05
2023-03-12T08:38:10.246Z,3.33
2023-03-12T08:40:37.191Z,2.83
2023-03-12T08:43:04.794Z,2.60
2023-03-12T08:45:31.514Z,2.55
2023-03-12T08:47:58.633Z,2.58
2023-03-12T08:50:29.135Z,3.03
2023-03-12T08:52:56.639Z,2.15
2023-03-12T08:55:23.201Z,2.20
2023-03-12T08:57:50.490Z,2.40
2023-03-12T09:00:18.031Z,2.63
2023-03-12T09:02:45.922Z,2.65
2023-03-12T09:05:13.620Z,2.35
2023-03-12T09:07:41.514Z,2.97
2023-03-12T09:10:09.305Z,2.65
2023-03-12T09:12:36.533Z,2.60
2023-03-12T09:15:04.958Z,2.67
2023-03-12T09:17:32.317Z,3.20
2023-03-12T09:20:00.012Z,2.47
2023-03-12T09:22:29.636Z,2.78
2023-03-12T09:27:23.324Z,2.13
2023-03-12T09:30:00.844Z,4.20
2023-03-12T09:32:28.971Z,2.80
2023-03-12T09:34:55.688Z,3.70
2023-03-12T09:37:24.166Z,2.78
2023-03-12T09:39:53.207Z,4.35
2023-03-12T09:42:29.720Z,3.58
2023-03-12T09:45:00.187Z,2.63
2023-03-12T09:47:32.111Z,3.08
2023-03-12T09:50:14.982Z,3.25
2023-03-12T09:52:51.420Z,3.00
2023-03-12T09:55:21.505Z,3.13
2023-03-12T09:57:53.487Z,2.55
2023-03-12T10:00:22.810Z,3.33
2023-03-12T10:03:08.046Z,3.05
2023-03-12T10:05:41.224Z,3.10
2023-03-12T10:08:24.198Z,3.42
2023-03-12T10:11:14.094Z,3.95
2023-03-12T10:14:26.004Z,3.38
2023-03-12T10:17:15.745Z,3.90
2023-03-12T10:20:19.961Z,3.70
2023-03-12T10:22:59.985Z,3.65
2023-03-12T10:25:46.588Z,4.80
2023-03-12T10:28:20.074Z,3.85
2023-03-12T10:30:54.240Z,4.72
2023-03-12T10:33:30.490Z,5.03
2023-03-12T10:36:25.014Z,4.68
2023-03-12T10:38:52.323Z,5.53
2023-03-12T10:41:23.081Z,12.70
2023-03-12T10:43:50.454Z,11.00
2023-03-12T10:46:37.385Z,7.50
2023-03-12T10:49:22.955Z,5.82
2023-03-12T10:51:57.246Z,6.13
2023-03-12T10:54:37.978Z,7.55
2023-03-12T10:57:05.284Z,5.30
2023-03-12T10:59:36.216Z,5.65
2023-03-12T11:02:24.066Z,8.07
2023-03-12T11:04:52.127Z,8.10
2023-03-12T11:07:33.149Z,13.43
2023-03-12T11:10:23.980Z,6.88
2023-03-12T11:12:52.997Z,6.45
2023-03-12T11:15:21.317Z,6.53
2023-03-12T11:17:49.017Z,6.47
2023-03-12T11:20:21.876Z,7.53
2023-03-12T11:22:51.221Z,7.07
2023-03-12T11:25:23.265Z,7.80
2023-03-12T11:27:54.424Z,8.80
2023-03-12T11:30:26.332Z,8.73
2023-03-12T11:32:53.551Z,7.25
2023-03-12T11:35:39.260Z,8.27
2023-03-12T11:38:31.891Z,6.88
2023-03-12T11:41:19.662Z,8.02
2023-03-12T11:43:57.206Z,7.50
2023-03-12T11:46:50.536Z,7.75
2023-03-12T11:49:44.147Z,6.90
2023-03-12T11:52:26.818Z,8.02
2023-03-12T11:55:17.032Z,7.78
2023-03-12T11:58:12.231Z,7.07
2023-03-12T12:00:49.098Z,8.38
2023-03-12T12:03:37.788Z,8.45
2023-03-12T12:06:18.658Z,8.67
2023-03-12T12:08:59.143Z,8.80
2023-03-12T12:11:57.262Z,8.40
2023-03-12T12:14:55.629Z,9.10
2023-03-12T12:17:29.192Z,9.13
2023-03-12T12:20:27.028Z,9.30
2023-03-12T12:23:38.063Z,11.02
2023-03-12T12:26:40.123Z,16.42
2023-03-12T12:29:20.269Z,15.63
2023-03-12T12:31:58.423Z,9.55
2023-03-12T12:34:54.280Z,8.38
2023-03-12T12:37:43.715Z,8.80
2023-03-12T12:40:16.729Z,9.13
2023-03-12T12:42:52.238Z,9.98
2023-03-12T12:45:24.234Z,10.65
2023-03-12T12:48:18.709Z,9.45
2023-03-12T12:50:48.205Z,9.63
2023-03-12T12:53:27.748Z,9.32
2023-03-12T12:56:16.233Z,9.25
2023-03-12T12:59:08.574Z,8.57
2023-03-12T13:01:37.995Z,8.60
2023-03-12T13:04:12.145Z,9.13
2023-03-12T13:07:27.974Z,8.88
2023-03-12T13:09:59.062Z,8.90
2023-03-12T13:12:52.896Z,9.43
2023-03-12T13:15:29.293Z,8.70
2023-03-12T13:17:58.822Z,9.27
2023-03-12T13:20:31.150Z,9.13
2023-03-12T13:23:35.176Z,9.43
2023-03-12T13:26:02.429Z,9.13
2023-03-12T13:28:35.971Z,8.82
2023-03-12T13:31:28.774Z,8.85
2023-03-12T13:33:59.512Z,8.95
2023-03-12T13:36:28.953Z,9.43
2023-03-12T13:39:01.513Z,9.20
2023-03-12T13:41:36.722Z,10.13
2023-03-12T13:44:23.595Z,9.02
2023-03-12T13:46:57.287Z,8.60
2023-03-12T13:49:25.298Z,8.63
2023-03-12T13:52:00.324Z,10.02
2023-03-12T13:54:42.577Z,9.30
2023-03-12T13:57:38.757Z,13.02
2023-03-12T14:00:32.177Z,13.38
2023-03-12T14:02:58.707Z,13.50
2023-03-12T14:05:27.973Z,13.15
2023-03-12T14:08:07.577Z,13.98
2023-03-12T14:10:49.562Z,14.02
2023-03-12T14:13:36.515Z,13.00
2023-03-12T14:16:23.795Z,12.95
2023-03-12T14:18:51.251Z,12.98
2023-03-12T14:21:20.596Z,12.88
2023-03-12T14:23:55.745Z,13.18
2023-03-12T14:26:31.409Z,13.85
2023-03-12T14:29:06.434Z,15.57
2023-03-12T14:31:35.617Z,15.55
2023-03-12T14:34:13.711Z,17.33
2023-03-12T14:36:50.076Z,15.73
2023-03-12T14:39:32.591Z,16.95
2023-03-12T14:42:05.634Z,15.05
2023-03-12T14:44:35.082Z,15.55
2023-03-12T14:49:31.883Z,15.77
2023-03-12T14:51:59.109Z,16.02
2023-03-12T14:54:28.264Z,15.63
2023-03-12T14:56:55.778Z,17.63
2023-03-12T14:59:24.514Z,15.27
2023-03-12T15:01:52.988Z,16.23
2023-03-12T15:04:23.549Z,17.25
2023-03-12T15:07:04.804Z,15.50
2023-03-12T15:09:34.738Z,16.42
2023-03-12T15:12:04.621Z,15.43
2023-03-12T15:17:05.437Z,15.65
2023-03-12T15:19:40.326Z,15.70
2023-03-12T15:22:14.288Z,15.60
2023-03-12T15:24:41.342Z,15.90
2023-03-12T15:27:28.917Z,15.27
2023-03-12T15:30:00.807Z,17.02
2023-03-12T15:32:30.780Z,15.73
2023-03-12T15:34:59.262Z,14.77
2023-03-12T15:37:35.435Z,15.30
2023-03-12T15:40:06.697Z,17.63
2023-03-12T15:42:43.944Z,14.10
2023-03-12T15:45:29.142Z,15.80
2023-03-12T15:47:56.508Z,17.00
2023-03-12T15:50:29.047Z,16.13
2023-03-12T15:53:00.257Z,17.55
2023-03-12T15:55:31.760Z,19.70
2023-03-12T15:57:59.862Z,18.42
2023-03-12T16:00:30.936Z,17.60
2023-03-12T16:03:07.058Z,17.17
2023-03-12T16:05:36.618Z,18.10
2023-03-12T16:08:24.169Z,15.52
2023-03-12T16:10:50.964Z,16.05
2023-03-12T16:16:07.021Z,16.80
2023-03-12T16:18:33.968Z,14.85
2023-03-12T16:21:00.576Z,15.60
2023-03-12T16:23:27.801Z,16.75
2023-03-12T16:25:56.351Z,16.15
2023-03-12T16:28:24.676Z,17.13
2023-03-12T16:30:51.974Z,15.32
2023-03-12T16:33:22.404Z,16.17
2023-03-12T16:35:49.143Z,13.98
2023-03-12T16:38:16.823Z,16.67
2023-03-12T16:40:46.864Z,15.93
2023-03-12T16:43:18.130Z,18.05
2023-03-12T16:45:46.806Z,17.83
2023-03-12T16:48:24.485Z,18.02
2023-03-12T16:50:54.078Z,17.02
2023-03-12T16:53:22.473Z,17.17
2023-03-12T16:56:35.257Z,17.02
2023-03-12T16:59:13.206Z,18.05
2023-03-12T17:01:39.855Z,18.42
2023-03-12T17:04:07.166Z,20.95
2023-03-12T17:06:34.460Z,19.17
2023-03-12T17:09:02.495Z,21.52
2023-03-12T17:11:32.901Z,21.70
2023-03-12T17:14:02.698Z,25.80
2023-03-12T17:16:29.594Z,25.75
2023-03-12T17:18:56.988Z,23.17
2023-03-12T17:21:24.913Z,26.25
2023-03-12T17:23:52.163Z,25.95
2023-03-12T17:26:19.082Z,26.83
2023-03-12T17:28:46.394Z,25.00
2023-03-12T17:31:13.010Z,22.73
2023-03-12T17:33:40.410Z,25.00
2023-03-12T17:36:08.856Z,24.08
2023-03-12T17:38:37.035Z,23.57
2023-03-12T17:41:09.322Z,23.55
2023-03-12T17:43:41.430Z,27.25
2023-03-12T17:46:09.618Z,28.05
2023-03-12T17:48:36.783Z,28.75
2023-03-12T17:51:07.930Z,29.70
2023-03-12T17:53:35.023Z,30.27
2023-03-12T17:56:01.900Z,30.20
2023-03-12T17:58:29.014Z,31.15
2023-03-12T18:00:55.542Z,34.78
2023-03-12T18:03:23.198Z,32.97
2023-03-12T18:05:50.752Z,29.77
2023-03-12T18:08:17.828Z,31.58
2023-03-12T18:10:44.704Z,31.55
2023-03-12T18:13:11.789Z,30.10
2023-03-12T18:15:38.446Z,28.77
2023-03-12T18:18:08.600Z,29.55
2023-03-12T18:20:39.118Z,31.23
2023-03-12T18:23:07.166Z,29.17
2023-03-12T18:25:33.887Z,26.92
2023-03-12T18:28:01.847Z,28.58
2023-03-12T18:30:28.529Z,28.60
2023-03-12T18:32:55.842Z,32.67
2023-03-12T18:35:23.081Z,34.25
2023-03-12T18:37:52.122Z,30.50
2023-03-12T18:40:19.493Z,32.58
2023-03-12T18:42:47.510Z,30.27
2023-03-12T18:45:14.434Z,29.13
2023-03-12T18:47:44.581Z,28.92
2023-03-12T18:50:12.839Z,30.73
2023-03-12T18:52:39.380Z,27.63
2023-03-12T18:55:06.670Z,27.27
2023-03-12T18:57:33.493Z,26.58
2023-03-12T19:00:00.809Z,25.30
2023-03-12T19:02:27.468Z,25.77
2023-03-12T19:04:56.217Z,25.92
2023-03-12T19:07:23.053Z,26.13
2023-03-12T19:09:50.534Z,25.98
2023-03-12T19:12:17.096Z,25.55
2023-03-12T19:14:44.288Z,24.27
2023-03-12T19:17:10.877Z,26.95
2023-03-12T19:19:37.785Z,26.17
2023-03-12T19:22:05.008Z,24.50
2023-03-12T19:24:37.789Z,21.30
2023-03-12T19:27:04.357Z,20.63
2023-03-12T19:29:31.238Z,20.95
2023-03-12T19:31:58.432Z,18.98
2023-03-12T19:34:25.051Z,18.30
2023-03-12T19:36:52.242Z,17.42
2023-03-12T19:39:21.367Z,13.77
2023-03-12T19:41:49.957Z,13.00
2023-03-12T19:44:16.677Z,13.18
2023-03-12T19:46:44.032Z,10.68
2023-03-12T19:49:11.179Z,9.77
2023-03-12T19:51:40.111Z,8.85
2023-03-12T19:54:07.971Z,9.20
2023-03-12T19:56:35.494Z,8.70
2023-03-12T19:59:01.999Z,7.45
2023-03-12T20:01:29.032Z,8.52
2023-03-12T20:03:56.520Z,8.75
2023-03-12T20:06:23.061Z,7.45
2023-03-12T20:08:50.605Z,8.07
2023-03-12T20:11:17.149Z,8.10
2023-03-12T20:13:45.315Z,8.20
2023-03-12T20:16:14.224Z,9.05
2023-03-12T20:18:40.921Z,7.15
2023-03-12T20:21:08.027Z,7.40
2023-03-12T20:23:34.838Z,7.82
2023-03-12T20:26:01.426Z,8.60
2023-03-12T20:28:29.200Z,9.95
2023-03-12T20:30:55.846Z,6.80
2023-03-12T20:33:23.350Z,6.65
2023-03-12T20:35:50.595Z,8.18
2023-03-12T20:38:18.118Z,7.20
2023-03-12T20:40:46.363Z,6.70
2023-03-12T20:43:12.932Z,5.85
2023-03-12T20:45:40.553Z,8.05
2023-03-12T20:48:07.392Z,6.65
2023-03-12T20:50:38.527Z,7.72
2023-03-12T20:53:06.521Z,6.43
2023-03-12T20:55:33.178Z,6.55
2023-03-12T20:58:00.144Z,5.78
2023-03-12T21:00:27.688Z,6.28
2023-03-12T21:02:54.260Z,6.95
2023-03-12T21:05:23.839Z,8.43
2023-03-12T21:07:52.954Z,6.63
2023-03-12T21:10:20.437Z,6.18
2023-03-12T21:12:47.982Z,5.95
2023-03-12T21:15:14.541Z,6.88
2023-03-12T21:17:41.664Z,5.93
2023-03-12T21:20:17.524Z,7.55
2023-03-12T21:22:46.632Z,5.72
2023-03-12T21:25:14.342Z,7.18
2023-03-12T21:27:50.623Z,5.72
